Time;durP1;ratioP1;P1;durP2;ratioP2;P2;SDS_P1;SDS_P2;PMS_P1;PMS_P2;Temp;Humidity;BMP_temperature;BMP_pressure;BME280_temperature;BME280_humidity;BME280_pressure;Samples;Min_cycle;Max_cycle;Signal;HPM_P1;HPM_P2
2021/07/11 00:02:03;;;;;;;;;9.33;9.33;;;;;-147.17;100.00;59696.56;4975547;28;51086;-52
2021/07/11 00:04:28;;;;;;;;;7.33;7.33;;;;;-147.17;100.00;59696.56;4975164;28;51117;-53
2021/07/11 00:06:54;;;;;;;;;10.67;10.00;;;;;-147.17;100.00;59696.56;4975250;28;51009;-53
2021/07/11 00:09:19;;;;;;;;;10.00;10.00;;;;;-147.17;100.00;59696.56;4973508;28;51266;-53
2021/07/11 00:11:44;;;;;;;;;12.00;12.00;;;;;-147.17;100.00;59696.56;4975172;28;51081;-54
2021/07/11 00:14:10;;;;;;;;;10.00;10.00;;;;;-147.17;100.00;59696.56;4975356;28;50992;-53
2021/07/11 00:16:36;;;;;;;;;12.25;11.00;;;;;-147.17;100.00;59696.56;4974644;28;51198;-50
2021/07/11 00:19:01;;;;;;;;;16.25;15.25;;;;;-147.17;100.00;59696.56;4974731;28;52037;-53
2021/07/11 00:21:26;;;;;;;;;6.67;6.67;;;;;-147.17;100.00;59696.56;4974722;28;50943;-57
2021/07/11 00:23:52;;;;;;;;;8.00;8.00;;;;;-147.17;100.00;59696.56;4974151;28;51030;-53
2021/07/11 00:26:18;;;;;;;;;10.33;9.33;;;;;-147.17;100.00;59696.56;4974620;28;51333;-52
2021/07/11 00:28:43;;;;;;;;;8.00;8.00;;;;;-147.17;100.00;59696.56;4974550;28;50998;-53
2021/07/11 00:31:09;;;;;;;;;7.00;7.00;;;;;-147.17;100.00;59696.56;4975009;28;51076;-51
2021/07/11 00:33:34;;;;;;;;;10.00;9.67;;;;;-147.17;100.00;59696.56;4975068;28;51193;-51
2021/07/11 00:35:59;;;;;;;;;6.00;6.00;;;;;-147.17;100.00;59696.56;4974361;28;50960;-54
2021/07/11 00:38:25;;;;;;;;;6.00;6.00;;;;;-147.17;100.00;59696.56;4975357;28;53551;-51
2021/07/11 00:40:50;;;;;;;;;8.67;8.00;;;;;-147.17;100.00;59696.56;4974971;28;51005;-52
2021/07/11 00:43:16;;;;;;;;;8.67;8.33;;;;;-147.17;100.00;59696.56;4974765;28;51191;-52
2021/07/11 00:45:42;;;;;;;;;9.33;8.00;;;;;-147.17;100.00;59696.56;4974493;28;51211;-53
2021/07/11 00:48:08;;;;;;;;;7.00;7.00;;;;;-147.17;100.00;59696.56;4974367;28;52034;-52
2021/07/11 00:50:33;;;;;;;;;5.00;5.00;;;;;-147.17;100.00;59696.56;4974762;28;51318;-53
2021/07/11 00:52:59;;;;;;;;;5.67;5.00;;;;;-147.17;100.00;59696.56;4956716;28;51137;-53
2021/07/11 00:55:24;;;;;;;;;3.00;3.00;;;;;-147.17;100.00;59696.56;4975015;28;51219;-53
2021/07/11 00:57:50;;;;;;;;;3.00;3.00;;;;;-147.17;100.00;59696.56;4973446;28;52034;-52
2021/07/11 01:00:16;;;;;;;;;2.00;2.00;;;;;-147.17;100.00;59696.56;4974585;28;51041;-53
2021/07/11 01:02:56;;;;;;;;;4.00;4.00;;;;;-147.17;100.00;59696.56;4973386;28;51682;-52
2021/07/11 01:05:24;;;;;;;;;3.67;3.67;;;;;-147.17;100.00;59696.56;4974814;28;51099;-52
2021/07/11 01:08:00;;;;;;;;;4.00;4.00;;;;;-147.17;100.00;59696.56;4974096;28;51032;-52
2021/07/11 01:10:34;;;;;;;;;4.00;4.00;;;;;-147.17;100.00;59696.56;4972378;28;50948;-51
2021/07/11 01:13:02;;;;;;;;;5.00;5.00;;;;;-147.17;100.00;59696.56;4974263;28;51010;-54
2021/07/11 01:15:29;;;;;;;;;3.00;3.00;;;;;-147.17;100.00;59696.56;4956426;28;51187;-52
2021/07/11 01:18:00;;;;;;;;;5.00;4.00;;;;;-147.17;100.00;59696.56;4972495;28;51151;-54
2021/07/11 01:20:35;;;;;;;;;4.00;4.00;;;;;-147.17;100.00;59696.56;4966644;28;51024;-54
2021/07/11 01:23:03;;;;;;;;;5.33;4.67;;;;;-147.17;100.00;59696.56;4974393;28;51178;-52
2021/07/11 01:25:42;;;;;;;;;3.00;3.00;;;;;-147.17;100.00;59696.56;4957394;28;51121;-53
2021/07/11 01:28:12;;;;;;;;;3.00;3.00;;;;;-147.17;100.00;59696.56;4973776;28;52873;-52
2021/07/11 01:30:38;;;;;;;;;5.33;4.67;;;;;-147.17;100.00;59696.56;4970626;28;51098;-51
2021/07/11 01:33:06;;;;;;;;;4.00;4.00;;;;;-147.17;100.00;59696.56;4964338;28;51098;-53
2021/07/11 01:35:33;;;;;;;;;4.33;4.33;;;;;-147.17;100.00;59696.56;4974236;28;51187;-53
2021/07/11 01:37:59;;;;;;;;;4.67;3.00;;;;;-147.17;100.00;59696.56;4974508;28;51938;-54
2021/07/11 01:40:28;;;;;;;;;3.67;3.00;;;;;-147.17;100.00;59696.56;4974038;28;51078;-54
2021/07/11 01:42:55;;;;;;;;;3.00;3.00;;;;;-147.17;100.00;59696.56;4973812;28;50904;-53
2021/07/11 01:45:21;;;;;;;;;3.67;3.67;;;;;-147.17;100.00;59696.56;4973341;28;51232;-53
2021/07/11 01:47:47;;;;;;;;;3.67;3.67;;;;;-147.17;100.00;59696.56;4973934;28;51172;-54
2021/07/11 01:50:13;;;;;;;;;3.00;3.00;;;;;-147.17;100.00;59696.56;4973480;28;51121;-53
2021/07/11 01:52:40;;;;;;;;;3.67;3.67;;;;;-147.17;100.00;59696.56;4972228;28;51019;-53
2021/07/11 01:55:07;;;;;;;;;4.00;4.00;;;;;-147.17;100.00;59696.56;4972108;28;50935;-54
2021/07/11 01:57:34;;;;;;;;;4.00;4.00;;;;;-147.17;100.00;59696.56;4971933;28;52649;-53
2021/07/11 01:59:59;;;;;;;;;3.00;3.00;;;;;-147.17;100.00;59696.56;4973730;28;51012;-54
2021/07/11 02:02:25;;;;;;;;;4.67;4.67;;;;;-147.17;100.00;59696.56;4956339;28;51517;-54
2021/07/11 02:04:50;;;;;;;;;4.00;4.00;;;;;-147.17;100.00;59696.56;4973524;28;51295;-54
2021/07/11 02:07:15;;;;;;;;;5.00;5.00;;;;;-147.17;100.00;59696.56;4973605;28;51648;-51
2021/07/11 02:09:41;;;;;;;;;4.00;3.33;;;;;-147.17;100.00;59696.56;4973603;28;50959;-53
2021/07/11 02:12:08;;;;;;;;;3.00;3.00;;;;;-147.17;100.00;59696.56;4972969;28;51094;-53
2021/07/11 02:14:37;;;;;;;;;3.67;3.67;;;;;-147.17;100.00;59696.56;4973870;28;51266;-53
2021/07/11 02:17:09;;;;;;;;;2.67;2.67;;;;;-147.17;100.00;59696.56;4973212;28;51187;-52
2021/07/11 02:19:38;;;;;;;;;3.00;3.00;;;;;-147.17;100.00;59696.56;4975447;28;51123;-53
2021/07/11 02:22:05;;;;;;;;;3.33;3.00;;;;;-147.17;100.00;59696.56;4956341;28;51051;-53
2021/07/11 02:24:36;;;;;;;;;3.33;3.33;;;;;-147.17;100.00;59696.56;4972782;28;51404;-54
2021/07/11 02:27:03;;;;;;;;;2.33;2.00;;;;;-147.17;100.00;59696.56;4969104;28;51904;-51
2021/07/11 02:29:34;;;;;;;;;3.00;3.00;;;;;-147.17;100.00;59696.56;4955209;28;51163;-53
2021/07/11 02:32:03;;;;;;;;;4.00;4.00;;;;;-147.17;100.00;59696.56;4973381;28;51289;-51
2021/07/11 02:34:29;;;;;;;;;4.33;4.33;;;;;-147.17;100.00;59696.56;4973446;28;50988;-54
2021/07/11 02:36:55;;;;;;;;;5.00;4.00;;;;;-147.17;100.00;59696.56;4974088;28;52604;-54
2021/07/11 02:39:22;;;;;;;;;6.00;5.67;;;;;-147.17;100.00;59696.56;4972620;28;51198;-54
2021/07/11 02:41:54;;;;;;;;;3.00;3.00;;;;;-147.17;100.00;59696.56;4972348;28;51076;-53
2021/07/11 02:44:21;;;;;;;;;4.00;4.00;;;;;-147.17;100.00;59696.56;4973591;28;50915;-54
2021/07/11 02:46:56;;;;;;;;;5.33;5.33;;;;;-147.17;100.00;59696.56;4955355;28;51919;-53
2021/07/11 02:49:24;;;;;;;;;4.00;4.00;;;;;-147.17;100.00;59696.56;4973379;28;51134;-54
2021/07/11 02:51:53;;;;;;;;;8.67;8.67;;;;;-147.17;100.00;59696.56;4973343;28;51130;-54
2021/07/11 02:54:27;;;;;;;;;4.00;3.67;;;;;-147.17;100.00;59696.56;4972034;28;50998;-54
2021/07/11 02:56:58;;;;;;;;;5.00;5.00;;;;;-147.17;100.00;59696.56;4972400;28;51792;-54
2021/07/11 02:59:24;;;;;;;;;4.67;4.67;;;;;-147.17;100.00;59696.56;4972536;28;51055;-53
2021/07/11 03:01:51;;;;;;;;;6.00;6.00;;;;;-147.17;100.00;59696.56;4972892;28;51030;-52
2021/07/11 03:04:19;;;;;;;;;5.00;5.00;;;;;-147.17;100.00;59696.56;4972771;28;51011;-53
2021/07/11 03:06:44;;;;;;;;;5.00;4.33;;;;;-147.17;100.00;59696.56;4972326;28;51983;-54
2021/07/11 03:09:10;;;;;;;;;4.33;4.33;;;;;-147.17;100.00;59696.56;4972947;28;51159;-54
2021/07/11 03:11:37;;;;;;;;;5.67;5.00;;;;;-147.17;100.00;59696.56;4972527;28;51260;-54
2021/07/11 03:14:05;;;;;;;;;8.33;8.00;;;;;-147.17;100.00;59696.56;4972746;28;51101;-52
2021/07/11 03:16:31;;;;;;;;;5.00;5.00;;;;;-147.17;100.00;59696.56;4959620;28;51153;-53
2021/07/11 03:19:00;;;;;;;;;4.00;4.00;;;;;-147.17;100.00;59696.56;4972087;28;50963;-52
2021/07/11 03:21:28;;;;;;;;;4.33;4.33;;;;;-147.17;100.00;59696.56;4975355;28;50928;-54
2021/07/11 03:23:55;;;;;;;;;5.00;5.00;;;;;-147.17;100.00;59696.56;4976467;28;51113;-53
2021/07/11 03:26:22;;;;;;;;;5.00;5.00;;;;;-147.17;100.00;59696.56;4975010;28;51114;-52
2021/07/11 03:28:49;;;;;;;;;4.00;4.00;;;;;-147.17;100.00;59696.56;4976234;28;50967;-54
2021/07/11 03:31:15;;;;;;;;;5.33;4.67;;;;;-147.17;100.00;59696.56;4976190;28;51036;-51
2021/07/11 03:33:46;;;;;;;;;5.00;5.00;;;;;-147.17;100.00;59696.56;4975649;28;51574;-54
2021/07/11 03:36:14;;;;;;;;;5.67;5.67;;;;;-147.17;100.00;59696.56;4975345;28;52860;-53
2021/07/11 03:38:54;;;;;;;;;7.00;7.00;;;;;-147.17;100.00;59696.56;4975762;28;51022;-54
2021/07/11 03:41:26;;;;;;;;;6.00;6.00;;;;;-147.17;100.00;59696.56;4974858;28;51018;-51
2021/07/11 03:43:58;;;;;;;;;5.00;5.00;;;;;-147.17;100.00;59696.56;4975899;28;51343;-53
2021/07/11 03:46:28;;;;;;;;;8.67;8.67;;;;;-147.17;100.00;59696.56;4975234;28;51151;-53
2021/07/11 03:48:57;;;;;;;;;7.00;7.00;;;;;-147.17;100.00;59696.56;4975764;28;51147;-54
2021/07/11 03:51:32;;;;;;;;;8.25;7.00;;;;;-147.17;100.00;59696.56;4942348;28;51202;-53
2021/07/11 03:53:59;;;;;;;;;7.33;6.67;;;;;-147.17;100.00;59696.56;4961915;28;51153;-53
2021/07/11 03:56:35;;;;;;;;;7.00;7.00;;;;;-147.17;100.00;59696.56;4974556;28;51018;-53
2021/07/11 03:59:02;;;;;;;;;3.67;3.67;;;;;-147.17;100.00;59696.56;4975827;28;50916;-53
2021/07/11 04:01:33;;;;;;;;;8.00;8.00;;;;;-147.17;100.00;59696.56;4975108;28;51101;-53
2021/07/11 04:04:01;;;;;;;;;7.00;7.00;;;;;-147.17;100.00;59696.56;4975957;28;51300;-51
2021/07/11 04:06:29;;;;;;;;;8.00;8.00;;;;;-147.17;100.00;59696.56;4975261;28;53006;-53
2021/07/11 04:09:03;;;;;;;;;7.00;7.00;;;;;-147.17;100.00;59696.56;4975594;28;50986;-53
2021/07/11 04:11:29;;;;;;;;;7.75;7.25;;;;;-147.17;100.00;59696.56;4979393;28;51272;-53
2021/07/11 04:13:54;;;;;;;;;7.50;7.50;;;;;-147.17;100.00;59696.56;4974791;28;51301;-53
2021/07/11 04:16:24;;;;;;;;;8.67;7.00;;;;;-147.17;100.00;59696.56;4975503;28;50924;-52
2021/07/11 04:18:51;;;;;;;;;11.33;10.00;;;;;-147.17;100.00;59696.56;4975414;28;51041;-52
2021/07/11 04:21:17;;;;;;;;;7.67;7.00;;;;;-147.17;100.00;59696.56;4973935;28;51113;-51
2021/07/11 04:23:44;;;;;;;;;9.00;9.00;;;;;-147.17;100.00;59696.56;4975056;28;51122;-52
2021/07/11 04:26:11;;;;;;;;;10.50;9.75;;;;;-147.17;100.00;59696.56;4975325;28;51866;-52
2021/07/11 04:28:40;;;;;;;;;10.00;9.00;;;;;-147.17;100.00;59696.56;4975058;28;50986;-53
2021/07/11 04:31:05;;;;;;;;;9.33;8.33;;;;;-147.17;100.00;59696.56;4975210;28;51219;-53
2021/07/11 04:33:32;;;;;;;;;8.25;8.00;;;;;-147.17;100.00;59696.56;4974481;28;51196;-51
2021/07/11 04:35:58;;;;;;;;;10.67;10.00;;;;;-147.17;100.00;59696.56;4975264;28;52826;-51
2021/07/11 04:38:24;;;;;;;;;11.33;11.33;;;;;-147.17;100.00;59696.56;4974959;28;50958;-53
2021/07/11 04:40:49;;;;;;;;;11.33;11.33;;;;;-147.17;100.00;59696.56;4975256;28;51150;-51
2021/07/11 04:43:17;;;;;;;;;11.50;11.00;;;;;-147.17;100.00;59696.56;4975042;28;51030;-52
2021/07/11 04:45:43;;;;;;;;;11.25;10.25;;;;;-147.17;100.00;59696.56;4973735;28;50997;-53
2021/07/11 04:48:08;;;;;;;;;9.00;9.00;;;;;-147.17;100.00;59696.56;4974350;28;51343;-52
2021/07/11 04:50:34;;;;;;;;;11.50;10.75;;;;;-147.17;100.00;59696.56;4957063;28;51678;-53
2021/07/11 04:52:59;;;;;;;;;9.67;9.67;;;;;-147.17;100.00;59696.56;4975240;28;51299;-53
2021/07/11 04:55:24;;;;;;;;;12.00;12.00;;;;;-147.17;100.00;59696.56;4973898;28;51713;-53
2021/07/11 04:57:50;;;;;;;;;10.00;9.00;;;;;-147.17;100.00;59696.56;4956883;28;51206;-51
2021/07/11 05:00:15;;;;;;;;;9.33;9.00;;;;;-147.17;100.00;59696.56;4975004;28;50947;-51
2021/07/11 05:02:41;;;;;;;;;9.75;8.75;;;;;-147.17;100.00;59696.56;4941454;28;51207;-55
2021/07/11 05:05:07;;;;;;;;;8.67;8.00;;;;;-147.17;100.00;59696.56;4974113;28;51837;-54
2021/07/11 05:07:34;;;;;;;;;7.00;7.00;;;;;-147.17;100.00;59696.56;4973977;28;50979;-53
2021/07/11 05:09:59;;;;;;;;;6.67;6.67;;;;;-147.17;100.00;59696.56;4975088;28;51030;-53
2021/07/11 05:12:25;;;;;;;;;5.00;5.00;;;;;-147.17;100.00;59696.56;4974704;28;51376;-53
2021/07/11 05:14:50;;;;;;;;;5.00;5.00;;;;;-147.17;100.00;59696.56;4974044;28;52260;-53
2021/07/11 05:17:16;;;;;;;;;5.00;4.33;;;;;-147.17;100.00;59696.56;4974615;28;51102;-54
2021/07/11 05:19:42;;;;;;;;;5.00;5.00;;;;;-147.17;100.00;59696.56;4974063;28;51103;-54
2021/07/11 05:22:08;;;;;;;;;6.00;6.00;;;;;-147.17;100.00;59696.56;4974638;28;50872;-53
2021/07/11 05:24:33;;;;;;;;;5.33;5.33;;;;;-147.17;100.00;59696.56;4973571;28;51150;-54
2021/07/11 05:26:59;;;;;;;;;7.00;7.00;;;;;-147.17;100.00;59696.56;4974038;28;50960;-54
2021/07/11 05:29:24;;;;;;;;;5.33;5.33;;;;;-147.17;100.00;59696.56;4974780;28;51122;-54
2021/07/11 05:31:49;;;;;;;;;7.33;6.67;;;;;-147.17;100.00;59696.56;4974668;28;51134;-54
2021/07/11 05:34:15;;;;;;;;;4.33;4.33;;;;;-147.17;100.00;59696.56;4973416;28;51843;-53
2021/07/11 05:36:40;;;;;;;;;5.33;5.00;;;;;-147.17;100.00;59696.56;4974446;28;50930;-54
2021/07/11 05:39:06;;;;;;;;;5.00;5.00;;;;;-147.17;100.00;59696.56;4973140;28;51128;-54
2021/07/11 05:41:31;;;;;;;;;6.00;6.00;;;;;-147.17;100.00;59696.56;4973657;28;51102;-54
2021/07/11 05:43:59;;;;;;;;;6.00;6.00;;;;;-147.17;100.00;59696.56;4973375;28;51747;-54
2021/07/11 05:46:25;;;;;;;;;7.67;7.67;;;;;-147.17;100.00;59696.56;4974174;28;51165;-54
2021/07/11 05:48:50;;;;;;;;;5.33;5.33;;;;;-147.17;100.00;59696.56;4973198;28;51179;-52
2021/07/11 05:51:16;;;;;;;;;5.67;4.67;;;;;-147.17;100.00;59696.56;4974025;28;51229;-53
2021/07/11 05:53:41;;;;;;;;;5.33;5.33;;;;;-147.17;100.00;59696.56;4972903;28;51762;-53
2021/07/11 05:56:06;;;;;;;;;7.67;7.33;;;;;-147.17;100.00;59696.56;4972383;28;51128;-53
2021/07/11 05:58:32;;;;;;;;;6.33;5.67;;;;;-147.17;100.00;59696.56;4973791;28;51065;-54
2021/07/11 06:00:57;;;;;;;;;3.33;3.33;;;;;-147.17;100.00;59696.56;4973709;28;51192;-54
2021/07/11 06:03:22;;;;;;;;;4.00;4.00;;;;;-147.17;100.00;59696.56;4973345;28;54746;-54
2021/07/11 06:05:48;;;;;;;;;4.00;4.00;;;;;-147.17;100.00;59696.56;4973815;28;51151;-54
2021/07/11 06:08:14;;;;;;;;;5.00;5.00;;;;;-147.17;100.00;59696.56;4973345;28;51196;-54
2021/07/11 06:10:39;;;;;;;;;5.00;4.33;;;;;-147.17;100.00;59696.56;4973242;28;51244;-53
2021/07/11 06:13:05;;;;;;;;;4.00;4.00;;;;;-147.17;100.00;59696.56;4971878;28;51722;-51
2021/07/11 06:15:31;;;;;;;;;4.00;4.00;;;;;-147.17;100.00;59696.56;4973502;28;51187;-53
2021/07/11 06:17:56;;;;;;;;;5.00;5.00;;;;;-147.17;100.00;59696.56;4973603;28;51044;-53
2021/07/11 06:20:23;;;;;;;;;4.00;4.00;;;;;-147.17;100.00;59696.56;4974057;28;50975;-52
2021/07/11 06:22:49;;;;;;;;;5.00;5.00;;;;;-147.17;100.00;59696.56;4955303;28;52950;-53
2021/07/11 06:25:14;;;;;;;;;4.33;4.00;;;;;-147.17;100.00;59696.56;4973650;28;51006;-53
2021/07/11 06:27:41;;;;;;;;;5.00;5.00;;;;;-147.17;100.00;59696.56;4973239;28;51324;-52
2021/07/11 06:30:10;;;;;;;;;6.67;6.67;;;;;-147.17;100.00;59696.56;4955610;28;50960;-50
2021/07/11 06:32:37;;;;;;;;;4.33;4.33;;;;;-147.17;100.00;59696.56;4970855;28;51922;-50
2021/07/11 06:35:05;;;;;;;;;7.00;7.00;;;;;-147.17;100.00;59696.56;4972757;28;50933;-52
2021/07/11 06:37:30;;;;;;;;;8.00;7.00;;;;;-147.17;100.00;59696.56;4957539;28;51145;-51
2021/07/11 06:39:56;;;;;;;;;8.00;7.33;;;;;-147.17;100.00;59696.56;4972989;28;51059;-53
2021/07/11 06:42:21;;;;;;;;;7.33;7.33;;;;;-147.17;100.00;59696.56;4972664;28;51996;-52
2021/07/11 06:44:46;;;;;;;;;7.00;7.00;;;;;-147.17;100.00;59696.56;4973495;28;50860;-54
2021/07/11 06:47:12;;;;;;;;;7.33;6.67;;;;;-147.17;100.00;59696.56;4972591;28;51169;-52
2021/07/11 06:49:37;;;;;;;;;7.00;7.00;;;;;-147.17;100.00;59696.56;4973699;28;51086;-54
2021/07/11 06:52:04;;;;;;;;;6.67;6.00;;;;;-147.17;100.00;59696.56;4972947;28;52664;-53
2021/07/11 06:54:30;;;;;;;;;5.00;5.00;;;;;-147.17;100.00;59696.56;4972897;28;51025;-52
2021/07/11 06:56:55;;;;;;;;;5.00;4.67;;;;;-147.17;100.00;59696.56;4972337;28;50954;-54
2021/07/11 06:59:21;;;;;;;;;5.00;5.00;;;;;-147.17;100.00;59696.56;4973382;28;51060;-53
2021/07/11 07:01:46;;;;;;;;;5.00;5.00;;;;;-147.17;100.00;59696.56;4953293;28;51874;-52
2021/07/11 07:04:12;;;;;;;;;4.00;4.00;;;;;-147.17;100.00;59696.56;4972292;28;51251;-52
2021/07/11 07:06:37;;;;;;;;;5.00;4.67;;;;;-147.17;100.00;59696.56;4973037;28;51043;-54
2021/07/11 07:09:03;;;;;;;;;5.00;4.00;;;;;-147.17;100.00;59696.56;4973161;28;50997;-54
2021/07/11 07:11:28;;;;;;;;;5.67;5.67;;;;;-147.17;100.00;59696.56;4970742;28;51443;-54
2021/07/11 07:13:53;;;;;;;;;4.00;4.00;;;;;-147.17;100.00;59696.56;4972898;28;51027;-53
2021/07/11 07:16:19;;;;;;;;;4.33;4.33;;;;;-147.17;100.00;59696.56;4972858;28;51027;-52
2021/07/11 07:18:44;;;;;;;;;4.00;4.00;;;;;-147.17;100.00;59696.56;4972927;28;51114;-53
2021/07/11 07:21:09;;;;;;;;;4.00;4.00;;;;;-147.17;100.00;59696.56;4972384;28;51765;-52
2021/07/11 07:23:35;;;;;;;;;6.33;6.33;;;;;-147.17;100.00;59696.56;4971655;28;51006;-51
2021/07/11 07:26:00;;;;;;;;;6.00;6.00;;;;;-147.17;100.00;59696.56;4973053;28;51541;-51
2021/07/11 07:28:26;;;;;;;;;4.67;4.67;;;;;-147.17;100.00;59696.56;4971556;28;51141;-53
2021/07/11 07:30:51;;;;;;;;;6.00;6.00;;;;;-147.17;100.00;59696.56;4971582;28;52014;-54
2021/07/11 07:33:16;;;;;;;;;5.00;5.00;;;;;-147.17;100.00;59696.56;4972319;28;50997;-53
2021/07/11 07:35:42;;;;;;;;;4.33;4.33;;;;;-147.17;100.00;59696.56;4972391;28;51527;-53
2021/07/11 07:38:07;;;;;;;;;4.33;4.33;;;;;-147.17;100.00;59696.56;4972810;28;50860;-53
2021/07/11 07:40:33;;;;;;;;;5.00;5.00;;;;;-147.17;100.00;59696.56;4972112;28;51232;-54
2021/07/11 07:42:58;;;;;;;;;4.00;4.00;;;;;-147.17;100.00;59696.56;4972050;28;50973;-55
2021/07/11 07:45:24;;;;;;;;;5.00;5.00;;;;;-147.17;100.00;59696.56;4972352;28;51330;-52
2021/07/11 07:47:50;;;;;;;;;6.00;6.00;;;;;-147.17;100.00;59696.56;4970258;28;51156;-52
2021/07/11 07:50:17;;;;;;;;;5.00;5.00;;;;;-147.17;100.00;59696.56;4972076;28;52928;-51
2021/07/11 07:52:42;;;;;;;;;5.67;5.67;;;;;-147.17;100.00;59696.56;4972419;28;50989;-53
2021/07/11 07:55:09;;;;;;;;;6.00;5.00;;;;;-147.17;100.00;59696.56;4972072;28;51026;-53
2021/07/11 07:57:34;;;;;;;;;7.33;7.00;;;;;-147.17;100.00;59696.56;4964901;28;51247;-54
2021/07/11 07:59:59;;;;;;;;;5.33;5.33;;;;;-147.17;100.00;59696.56;4971676;28;51747;-54
2021/07/11 08:02:25;;;;;;;;;5.67;5.67;;;;;-147.17;100.00;59696.56;4971914;28;51269;-54
2021/07/11 08:04:50;;;;;;;;;10.33;10.33;;;;;-147.17;100.00;59696.56;4972001;28;51072;-51
2021/07/11 08:07:17;;;;;;;;;5.00;5.00;;;;;-147.17;100.00;59696.56;4974345;28;51269;-51
2021/07/11 08:09:42;;;;;;;;;5.00;5.00;;;;;-147.17;100.00;59696.56;4975385;28;51116;-53
2021/07/11 08:12:08;;;;;;;;;6.00;6.00;;;;;-147.17;100.00;59696.56;4975417;28;50946;-54
2021/07/11 08:14:34;;;;;;;;;5.33;5.33;;;;;-147.17;100.00;59696.56;4975526;28;51286;-52
2021/07/11 08:16:59;;;;;;;;;6.00;6.00;;;;;-147.17;100.00;59696.56;4975635;28;50885;-53
2021/07/11 08:19:25;;;;;;;;;5.33;5.33;;;;;-147.17;100.00;59696.56;4974885;28;52224;-52
2021/07/11 08:21:53;;;;;;;;;5.00;5.00;;;;;-147.17;100.00;59696.56;4975674;28;51211;-55
2021/07/11 08:24:22;;;;;;;;;5.00;5.00;;;;;-147.17;100.00;59696.56;4975331;28;51223;-52
2021/07/11 08:26:48;;;;;;;;;5.33;4.67;;;;;-147.17;100.00;59696.56;4975336;28;50870;-56
2021/07/11 08:29:14;;;;;;;;;6.67;6.00;;;;;-147.17;100.00;59696.56;4974806;28;50924;-55
2021/07/11 08:31:39;;;;;;;;;6.00;6.00;;;;;-147.17;100.00;59696.56;4973319;28;51260;-54
2021/07/11 08:34:05;;;;;;;;;7.00;6.67;;;;;-147.17;100.00;59696.56;4977366;28;51304;-55
2021/07/11 08:36:31;;;;;;;;;6.33;6.33;;;;;-147.17;100.00;59696.56;4974475;28;51361;-54
2021/07/11 08:38:57;;;;;;;;;4.00;4.00;;;;;-147.17;100.00;59696.56;4986372;28;52722;-54
2021/07/11 08:41:24;;;;;;;;;4.00;4.00;;;;;-147.17;100.00;59696.56;4975450;28;51140;-53
2021/07/11 08:43:51;;;;;;;;;3.00;3.00;;;;;-147.17;100.00;59696.56;4974832;28;51112;-54
2021/07/11 08:46:16;;;;;;;;;3.33;3.33;;;;;-147.17;100.00;59696.56;4973529;28;51145;-54
2021/07/11 08:48:43;;;;;;;;;5.33;5.33;;;;;-147.17;100.00;59696.56;4976349;28;51748;-54
2021/07/11 08:51:08;;;;;;;;;3.33;3.33;;;;;-147.17;100.00;59696.56;4972752;28;51074;-54
2021/07/11 08:53:34;;;;;;;;;4.00;4.00;;;;;-147.17;100.00;59696.56;4974467;28;51020;-54
2021/07/11 08:56:05;;;;;;;;;5.00;4.00;;;;;-147.17;100.00;59696.56;4976347;28;50864;-54
2021/07/11 08:58:30;;;;;;;;;4.00;4.00;;;;;-147.17;100.00;59696.56;4973939;28;52186;-54
2021/07/11 09:00:56;;;;;;;;;3.67;2.67;;;;;-147.17;100.00;59696.56;4974082;28;51038;-53
2021/07/11 09:03:21;;;;;;;;;4.00;4.00;;;;;-147.17;100.00;59696.56;4956285;28;51338;-55
2021/07/11 09:05:54;;;;;;;;;6.33;6.33;;;;;-147.17;100.00;59696.56;4974074;28;51260;-54
2021/07/11 09:08:25;;;;;;;;;4.00;4.00;;;;;-147.17;100.00;59696.56;4981032;28;51913;-54
2021/07/11 09:10:53;;;;;;;;;2.67;2.67;;;;;-147.17;100.00;59696.56;4974345;28;51033;-54
2021/07/11 09:13:25;;;;;;;;;2.67;2.67;;;;;-147.17;100.00;59696.56;4973526;28;51177;-53
2021/07/11 09:15:56;;;;;;;;;2.00;2.00;;;;;-147.17;100.00;59696.56;4956813;28;51443;-53
2021/07/11 09:18:33;;;;;;;;;2.00;2.00;;;;;-147.17;100.00;59696.56;4954661;28;52151;-54
2021/07/11 09:20:59;;;;;;;;;2.00;2.00;;;;;-147.17;100.00;59696.56;4954534;28;51097;-55
2021/07/11 09:23:25;;;;;;;;;3.00;2.00;;;;;-147.17;100.00;59696.56;4984583;28;51089;-54
2021/07/11 09:26:05;;;;;;;;;2.00;2.00;;;;;-147.17;100.00;59696.56;4978592;28;51212;-54
2021/07/11 09:28:32;;;;;;;;;4.00;3.67;;;;;-147.17;100.00;59696.56;4973543;28;51898;-54
2021/07/11 09:31:08;;;;;;;;;3.00;3.00;;;;;-147.17;100.00;59696.56;4973522;28;50887;-53
2021/07/11 09:33:36;;;;;;;;;1.33;1.33;;;;;-147.17;100.00;59696.56;4973778;28;50866;-53
2021/07/11 09:36:04;;;;;;;;;4.00;4.00;;;;;-147.17;100.00;59696.56;4972997;28;51324;-54
2021/07/11 09:38:30;;;;;;;;;5.00;5.00;;;;;-147.17;100.00;59696.56;4986466;28;51768;-54
2021/07/11 09:40:55;;;;;;;;;4.00;4.00;;;;;-147.17;100.00;59696.56;4974530;28;51054;-55
2021/07/11 09:43:20;;;;;;;;;7.00;6.67;;;;;-147.17;100.00;59696.56;4973380;28;51003;-54
2021/07/11 09:45:46;;;;;;;;;3.67;3.67;;;;;-147.17;100.00;59696.56;4974830;28;51028;-55
2021/07/11 09:48:11;;;;;;;;;3.67;3.67;;;;;-147.17;100.00;59696.56;4987671;28;52749;-54
2021/07/11 09:50:37;;;;;;;;;2.00;2.00;;;;;-147.17;100.00;59696.56;4974223;28;50852;-55
2021/07/11 09:53:05;;;;;;;;;2.33;2.33;;;;;-147.17;100.00;59696.56;4974356;28;51106;-54
2021/07/11 09:55:33;;;;;;;;;3.00;2.67;;;;;-147.17;100.00;59696.56;4966925;28;51208;-54
2021/07/11 09:58:00;;;;;;;;;2.00;2.00;;;;;-147.17;100.00;59696.56;4967277;28;52314;-54
2021/07/11 10:00:28;;;;;;;;;3.67;3.00;;;;;-147.17;100.00;59696.56;4954527;28;51333;-53
2021/07/11 10:03:02;;;;;;;;;3.33;3.33;;;;;-147.17;100.00;59696.56;4971864;28;51164;-54
2021/07/11 10:05:30;;;;;;;;;3.00;3.00;;;;;-147.17;100.00;59696.56;4972631;28;51328;-55
2021/07/11 10:07:57;;;;;;;;;3.67;3.67;;;;;-147.17;100.00;59696.56;4969537;28;51389;-55
2021/07/11 10:10:25;;;;;;;;;4.67;4.00;;;;;-147.17;100.00;59696.56;4971578;28;51211;-55
2021/07/11 10:12:52;;;;;;;;;3.00;3.00;;;;;-147.17;100.00;59696.56;4973260;28;51198;-54
2021/07/11 10:15:20;;;;;;;;;3.00;3.00;;;;;-147.17;100.00;59696.56;4971034;28;51684;-54
2021/07/11 10:17:56;;;;;;;;;4.33;4.33;;;;;-147.17;100.00;59696.56;4971802;28;51859;-54
2021/07/11 10:20:32;;;;;;;;;4.00;4.00;;;;;-147.17;100.00;59696.56;4970703;28;51163;-55
2021/07/11 10:22:58;;;;;;;;;3.67;3.67;;;;;-147.17;100.00;59696.56;4970956;28;51352;-53
2021/07/11 10:25:26;;;;;;;;;3.00;3.00;;;;;-147.17;100.00;59696.56;4954616;28;51381;-54
2021/07/11 10:28:11;;;;;;;;;4.33;4.00;;;;;-147.17;100.00;59696.56;4954431;28;52410;-54
2021/07/11 10:30:39;;;;;;;;;4.00;4.00;;;;;-147.17;100.00;59696.56;4970159;28;50992;-53
2021/07/11 10:33:12;;;;;;;;;4.00;4.00;;;;;-147.17;100.00;59696.56;4972067;28;51026;-54
2021/07/11 10:38:39;;;;;;;;;2.67;2.67;;;;;-147.17;100.00;59696.56;5334905;22;51428;-55
2021/07/11 10:41:16;;;;;;;;;4.33;4.33;;;;;-147.17;100.00;59696.56;5022001;28;51478;-52
2021/07/11 10:43:45;;;;;;;;;5.67;5.67;;;;;-147.17;100.00;59696.56;5010925;28;51143;-54
2021/07/11 10:46:10;;;;;;;;;7.67;6.67;;;;;-147.17;100.00;59696.56;5011212;28;51009;-52
2021/07/11 10:48:36;;;;;;;;;4.00;4.00;;;;;-147.17;100.00;59696.56;5010966;28;51933;-52
2021/07/11 10:51:03;;;;;;;;;5.33;5.33;;;;;-147.17;100.00;59696.56;5023435;28;51209;-53
2021/07/11 10:53:36;;;;;;;;;3.67;3.67;;;;;-147.17;100.00;59696.56;5020434;28;52671;-51
2021/07/11 10:56:04;;;;;;;;;2.00;2.00;;;;;-147.17;100.00;59696.56;5019007;28;52659;-52
2021/07/11 10:58:46;;;;;;;;;3.33;3.00;;;;;-147.17;100.00;59696.56;5015877;28;51905;-51
2021/07/11 11:01:20;;;;;;;;;2.67;2.67;;;;;-147.17;100.00;59696.56;5017294;28;51249;-51
2021/07/11 11:03:48;;;;;;;;;4.00;3.33;;;;;-147.17;100.00;59696.56;5019999;28;51119;-51
2021/07/11 11:06:14;;;;;;;;;3.00;3.00;;;;;-147.17;100.00;59696.56;5023162;28;51021;-52
2021/07/11 11:08:43;;;;;;;;;4.33;4.00;;;;;-147.17;100.00;59696.56;5017618;28;52086;-53
2021/07/11 11:11:08;;;;;;;;;4.00;4.00;;;;;-147.17;100.00;59696.56;5017360;28;51211;-54
2021/07/11 11:13:34;;;;;;;;;4.00;4.00;;;;;-147.17;100.00;59696.56;5028320;28;51387;-53